createdAt,value
2023-02-23T00:02:10.230Z,33.45
2023-02-23T00:04:38.421Z,33.75
2023-02-23T00:07:06.616Z,33.10
2023-02-23T00:09:37.914Z,34.53
2023-02-23T00:12:10.273Z,32.38
2023-02-23T00:14:39.261Z,32.97
2023-02-23T00:17:14.839Z,31.02
2023-02-23T00:19:45.984Z,30.98
2023-02-23T00:22:13.782Z,28.92
2023-02-23T00:24:42.859Z,30.63
2023-02-23T00:27:13.263Z,31.33
2023-02-23T00:29:41.032Z,32.58
2023-02-23T00:32:09.069Z,32.78
2023-02-23T00:34:37.310Z,30.80
2023-02-23T00:37:05.359Z,35.58
2023-02-23T00:39:33.081Z,34.53
2023-02-23T00:42:03.124Z,35.38
2023-02-23T00:44:33.900Z,35.65
2023-02-23T00:47:02.680Z,35.78
2023-02-23T00:49:30.325Z,32.58
2023-02-23T00:51:58.468Z,30.35
2023-02-23T00:54:26.539Z,33.55
2023-02-23T00:56:54.199Z,36.65
2023-02-23T00:59:23.682Z,35.25
2023-02-23T01:01:52.553Z,35.47
2023-02-23T01:04:23.485Z,36.22
2023-02-23T01:06:51.634Z,32.92
2023-02-23T01:09:28.014Z,29.45
2023-02-23T01:11:57.203Z,31.70
2023-02-23T01:14:25.080Z,34.35
2023-02-23T01:16:52.906Z,33.10
2023-02-23T01:19:21.356Z,32.38
2023-02-23T01:21:50.116Z,33.70
2023-02-23T01:24:18.790Z,31.13
2023-02-23T01:26:46.653Z,33.55
2023-02-23T01:29:18.064Z,32.35
2023-02-23T01:31:52.960Z,30.75
2023-02-23T01:34:21.840Z,32.37
2023-02-23T01:36:49.770Z,35.22
2023-02-23T01:39:20.625Z,35.78
2023-02-23T01:41:51.545Z,36.78
2023-02-23T01:44:19.168Z,35.28
2023-02-23T01:46:47.533Z,33.30
2023-02-23T01:49:27.421Z,33.47
2023-02-23T01:52:16.837Z,31.45
2023-02-23T01:54:52.283Z,29.52
2023-02-23T01:57:25.041Z,29.67
2023-02-23T01:59:55.029Z,30.05
2023-02-23T02:02:33.474Z,27.17
2023-02-23T02:05:04.696Z,26.58
2023-02-23T02:07:35.513Z,28.83
2023-02-23T02:10:13.384Z,27.42
2023-02-23T02:12:52.073Z,25.65
2023-02-23T02:15:22.553Z,25.58
2023-02-23T02:18:11.097Z,25.52
2023-02-23T02:21:19.266Z,25.42
2023-02-23T02:24:12.108Z,27.85
2023-02-23T02:26:49.023Z,27.70
2023-02-23T02:29:38.730Z,31.05
2023-02-23T02:32:12.616Z,31.48
2023-02-23T02:35:39.065Z,30.80
2023-02-23T02:38:20.055Z,29.02
2023-02-23T02:41:00.953Z,28.23
2023-02-23T02:43:57.882Z,30.63
2023-02-23T02:46:36.629Z,29.42
2023-02-23T02:49:17.550Z,28.05
2023-02-23T02:52:05.859Z,28.33
2023-02-23T02:54:41.079Z,28.10
2023-02-23T02:57:11.382Z,25.83
2023-02-23T03:00:05.520Z,26.73
2023-02-23T03:02:56.366Z,25.92
2023-02-23T03:06:09.966Z,28.88
2023-02-23T03:09:34.822Z,28.00
2023-02-23T03:12:34.408Z,25.50
2023-02-23T03:15:42.827Z,25.98
2023-02-23T03:18:47.734Z,27.77
2023-02-23T03:21:52.776Z,28.73
2023-02-23T03:24:57.249Z,28.48
2023-02-23T03:28:27.903Z,30.23
2023-02-23T03:31:24.057Z,30.55
2023-02-23T03:34:31.612Z,33.42
2023-02-23T03:37:53.584Z,34.78
2023-02-23T03:40:49.250Z,31.65
2023-02-23T03:43:41.966Z,31.40
2023-02-23T03:46:31.999Z,28.05
2023-02-23T03:49:22.104Z,27.50
2023-02-23T03:52:16.223Z,27.38
2023-02-23T03:55:14.870Z,28.90
2023-02-23T03:58:05.569Z,28.73
2023-02-23T04:00:58.704Z,30.30
2023-02-23T04:03:46.570Z,27.90
2023-02-23T04:06:36.343Z,29.17
2023-02-23T04:09:26.386Z,28.63
2023-02-23T04:12:39.140Z,32.15
2023-02-23T04:15:28.283Z,32.80
2023-02-23T04:17:56.396Z,29.92
2023-02-23T04:20:26.006Z,27.67
2023-02-23T04:22:53.794Z,27.98
2023-02-23T04:25:24.606Z,24.80
2023-02-23T04:27:52.368Z,26.08
2023-02-23T04:30:20.716Z,26.83
2023-02-23T04:32:48.556Z,27.45
2023-02-23T04:35:16.430Z,26.92
2023-02-23T04:37:44.033Z,26.02
2023-02-23T04:40:12.599Z,26.40
2023-02-23T04:42:40.796Z,26.88
2023-02-23T04:45:09.461Z,26.80
2023-02-23T04:47:38.095Z,27.85
2023-02-23T04:50:06.615Z,28.52
2023-02-23T04:52:35.062Z,27.33
2023-02-23T04:55:02.755Z,26.58
2023-02-23T04:57:30.384Z,29.88
2023-02-23T04:59:58.420Z,27.60
2023-02-23T05:02:26.880Z,27.20
2023-02-23T05:04:54.569Z,28.55
2023-02-23T05:07:22.948Z,27.17
2023-02-23T05:09:50.579Z,27.05
2023-02-23T05:12:18.476Z,28.52
2023-02-23T05:14:46.203Z,26.00
2023-02-23T05:17:14.010Z,29.08
2023-02-23T05:19:41.829Z,27.13
2023-02-23T05:22:12.581Z,30.42
2023-02-23T05:24:41.035Z,30.02
2023-02-23T05:27:10.248Z,27.33
2023-02-23T05:29:38.031Z,25.73
2023-02-23T05:32:06.159Z,29.50
2023-02-23T05:34:33.995Z,32.92
2023-02-23T05:37:01.724Z,32.63
2023-02-23T05:39:29.432Z,33.33
2023-02-23T05:41:57.120Z,31.98
2023-02-23T05:44:25.282Z,32.67
2023-02-23T05:46:53.358Z,35.05
2023-02-23T05:49:21.002Z,33.47
2023-02-23T05:51:49.042Z,30.48
2023-02-23T05:54:16.646Z,29.42
2023-02-23T05:56:44.466Z,30.58
2023-02-23T05:59:13.422Z,31.83
2023-02-23T06:01:41.667Z,30.13
2023-02-23T06:04:09.846Z,29.98
2023-02-23T06:06:37.587Z,32.10
2023-02-23T06:09:05.528Z,28.52
2023-02-23T06:11:33.206Z,28.67
2023-02-23T06:14:01.087Z,27.80
2023-02-23T06:16:29.002Z,24.80
2023-02-23T06:18:56.691Z,29.08
2023-02-23T06:21:25.119Z,27.02
2023-02-23T06:23:53.496Z,26.35
2023-02-23T06:26:21.355Z,27.00
2023-02-23T06:28:49.047Z,28.48
2023-02-23T06:31:16.992Z,27.77
2023-02-23T06:33:44.749Z,26.05
2023-02-23T06:36:12.837Z,26.05
2023-02-23T06:38:40.415Z,24.17
2023-02-23T06:41:10.799Z,24.20
2023-02-23T06:43:38.577Z,26.50
2023-02-23T06:46:06.347Z,26.13
2023-02-23T06:48:35.564Z,27.10
2023-02-23T06:51:03.662Z,26.40
2023-02-23T06:53:31.653Z,26.10
2023-02-23T06:56:00.084Z,26.98
2023-02-23T06:58:28.491Z,28.95
2023-02-23T07:00:58.637Z,26.65
2023-02-23T07:03:26.667Z,27.90
2023-02-23T07:05:54.468Z,29.25
2023-02-23T07:08:22.214Z,28.20
2023-02-23T07:10:49.837Z,29.73
2023-02-23T07:13:17.665Z,30.45
2023-02-23T07:15:45.334Z,30.40
2023-02-23T07:18:13.061Z,31.75
2023-02-23T07:20:40.749Z,28.88
2023-02-23T07:23:08.428Z,29.88
2023-02-23T07:25:36.362Z,31.08
2023-02-23T07:28:04.293Z,32.83
2023-02-23T07:30:31.936Z,33.50
2023-02-23T07:32:59.823Z,31.80
2023-02-23T07:35:27.436Z,33.00
2023-02-23T07:37:55.972Z,32.08
2023-02-23T07:40:24.087Z,32.83
2023-02-23T07:42:52.232Z,35.15
2023-02-23T07:45:21.265Z,32.00
2023-02-23T07:47:49.316Z,34.33
2023-02-23T07:50:17.113Z,35.67
2023-02-23T07:52:44.922Z,34.13
2023-02-23T07:55:12.939Z,33.40
2023-02-23T07:57:40.874Z,34.95
2023-02-23T08:00:09.559Z,33.85
2023-02-23T08:02:43.825Z,35.78
2023-02-23T08:05:12.815Z,36.70
2023-02-23T08:07:40.456Z,33.67
2023-02-23T08:10:08.772Z,35.92
2023-02-23T08:12:36.976Z,36.33
2023-02-23T08:15:09.210Z,33.97
2023-02-23T08:17:38.446Z,34.10
2023-02-23T08:20:08.025Z,35.30
2023-02-23T08:22:48.416Z,36.88
2023-02-23T08:25:18.071Z,36.20
2023-02-23T08:27:46.382Z,35.88
2023-02-23T08:30:15.564Z,36.17
2023-02-23T08:32:43.395Z,37.58
2023-02-23T08:35:11.595Z,36.92
2023-02-23T08:37:39.354Z,37.85
2023-02-23T08:40:08.005Z,34.95
2023-02-23T08:42:35.837Z,36.90
2023-02-23T08:45:04.155Z,38.00
2023-02-23T08:47:34.285Z,37.35
2023-02-23T08:50:02.497Z,37.67
2023-02-23T08:52:30.112Z,40.53
2023-02-23T08:54:58.575Z,39.15
2023-02-23T08:57:27.062Z,34.53
2023-02-23T08:59:54.761Z,37.85
2023-02-23T09:02:23.814Z,38.33
2023-02-23T09:04:54.069Z,37.50
2023-02-23T09:07:23.462Z,40.38
2023-02-23T09:09:56.893Z,38.78
2023-02-23T09:12:25.034Z,36.58
2023-02-23T09:14:53.882Z,37.42
2023-02-23T09:17:23.076Z,37.92
2023-02-23T09:19:51.133Z,36.17
2023-02-23T09:22:19.758Z,34.97
2023-02-23T09:24:47.439Z,35.88
2023-02-23T09:27:15.236Z,35.47
2023-02-23T09:29:43.863Z,36.83
2023-02-23T09:32:12.635Z,37.13
2023-02-23T09:34:40.986Z,34.50
2023-02-23T09:37:08.770Z,33.60
2023-02-23T09:39:38.922Z,35.53
2023-02-23T09:42:18.754Z,35.10
2023-02-23T09:45:13.107Z,35.38
2023-02-23T09:47:58.284Z,35.08
2023-02-23T09:50:30.413Z,36.35
2023-02-23T09:53:08.441Z,37.15
2023-02-23T09:55:38.957Z,34.72
2023-02-23T09:58:27.794Z,33.42
2023-02-23T10:01:46.266Z,31.67
2023-02-23T10:04:32.486Z,31.00
2023-02-23T10:10:17.563Z,31.65
2023-02-23T10:13:04.652Z,32.85
2023-02-23T10:15:56.005Z,32.28
2023-02-23T10:18:54.836Z,33.47
2023-02-23T10:21:42.059Z,32.03
2023-02-23T10:24:20.932Z,33.25
2023-02-23T10:27:00.595Z,29.98
2023-02-23T10:29:42.709Z,33.10
2023-02-23T10:32:42.298Z,31.17
2023-02-23T10:35:20.400Z,30.92
2023-02-23T10:37:50.626Z,29.13
2023-02-23T10:40:32.237Z,31.17
2023-02-23T10:43:03.478Z,30.95
2023-02-23T10:45:47.296Z,29.67
2023-02-23T10:48:31.423Z,31.08
2023-02-23T10:51:02.788Z,29.48
2023-02-23T10:53:39.088Z,27.40
2023-02-23T10:56:15.097Z,27.75
2023-02-23T10:58:58.569Z,26.40
2023-02-23T11:02:01.040Z,25.30
2023-02-23T11:04:32.772Z,24.38
2023-02-23T11:07:18.160Z,24.02
2023-02-23T11:09:48.137Z,23.17
2023-02-23T11:12:22.292Z,22.52
2023-02-23T11:14:56.763Z,22.88
2023-02-23T11:17:34.561Z,22.83
2023-02-23T11:20:28.608Z,22.40
2023-02-23T11:23:03.615Z,21.60
2023-02-23T11:25:38.750Z,21.50
2023-02-23T11:28:06.428Z,21.20
2023-02-23T11:30:43.069Z,22.23
2023-02-23T11:33:19.056Z,21.83
2023-02-23T11:35:46.785Z,22.60
2023-02-23T11:38:26.737Z,21.17
2023-02-23T11:41:22.701Z,22.17
2023-02-23T11:44:23.694Z,22.58
2023-02-23T11:46:52.314Z,20.15
2023-02-23T11:49:39.526Z,21.40
2023-02-23T11:52:16.594Z,19.00
2023-02-23T11:55:00.737Z,16.95
2023-02-23T11:57:33.711Z,17.40
2023-02-23T12:00:12.663Z,16.02
2023-02-23T12:02:52.377Z,16.80
2023-02-23T12:05:28.620Z,17.05
2023-02-23T12:08:05.387Z,16.70
2023-02-23T12:10:52.194Z,16.52
2023-02-23T12:13:22.917Z,15.85
2023-02-23T12:16:08.829Z,18.50
2023-02-23T12:19:17.861Z,17.17
2023-02-23T12:21:58.446Z,16.77
2023-02-23T12:24:42.148Z,17.02
2023-02-23T12:27:17.222Z,16.50
2023-02-23T12:30:15.472Z,16.63
2023-02-23T12:32:53.884Z,14.25
2023-02-23T12:35:32.499Z,15.60
2023-02-23T12:38:27.758Z,14.40
2023-02-23T12:41:09.784Z,14.93
2023-02-23T12:43:54.589Z,14.20
2023-02-23T12:46:38.671Z,15.45
2023-02-23T12:49:32.382Z,14.77
2023-02-23T12:52:14.813Z,13.57
2023-02-23T12:54:46.889Z,14.90
2023-02-23T12:57:54.911Z,14.05
2023-02-23T13:00:55.296Z,14.45
2023-02-23T13:04:22.439Z,14.30
2023-02-23T13:07:59.199Z,14.27
2023-02-23T13:11:09.315Z,14.40
2023-02-23T13:14:09.453Z,13.70
2023-02-23T13:16:50.138Z,14.40
2023-02-23T13:19:26.891Z,13.95
2023-02-23T13:22:27.116Z,14.18
2023-02-23T13:24:59.861Z,13.57
2023-02-23T13:27:52.595Z,13.90
2023-02-23T13:30:20.882Z,12.65
2023-02-23T13:32:48.970Z,11.43
2023-02-23T13:35:21.828Z,12.02
2023-02-23T13:38:00.935Z,11.70
2023-02-23T13:40:49.778Z,11.00
2023-02-23T13:43:36.881Z,11.07
2023-02-23T13:46:25.658Z,10.20
2023-02-23T13:49:10.928Z,11.15
2023-02-23T13:51:53.406Z,10.45
2023-02-23T13:54:34.479Z,10.20
2023-02-23T13:57:08.190Z,9.93
2023-02-23T13:59:45.610Z,9.70
2023-02-23T14:02:30.943Z,10.57
2023-02-23T14:05:18.358Z,9.40
2023-02-23T14:07:52.564Z,8.93
2023-02-23T14:10:29.315Z,10.10
2023-02-23T14:13:11.154Z,8.73
2023-02-23T14:15:38.811Z,8.60
2023-02-23T14:18:21.721Z,8.30
2023-02-23T14:21:03.024Z,8.95
2023-02-23T14:23:38.425Z,7.85
2023-02-23T14:26:16.449Z,8.50
2023-02-23T14:29:14.352Z,8.38
2023-02-23T14:32:10.902Z,9.05
2023-02-23T14:34:59.708Z,8.27
2023-02-23T14:37:37.785Z,8.70
2023-02-23T14:40:32.783Z,9.20
2023-02-23T14:43:03.637Z,8.48
2023-02-23T14:45:37.297Z,8.95
2023-02-23T14:48:17.152Z,9.07
2023-02-23T14:50:45.045Z,9.13
2023-02-23T14:53:22.343Z,9.23
2023-02-23T14:55:50.292Z,10.95
2023-02-23T14:58:33.530Z,10.45
2023-02-23T15:01:01.454Z,11.23
2023-02-23T15:03:30.335Z,11.68
2023-02-23T15:06:00.966Z,10.05
2023-02-23T15:08:31.990Z,10.05
2023-02-23T15:11:04.849Z,10.48
2023-02-23T15:13:40.953Z,11.10
2023-02-23T15:16:24.486Z,10.30
2023-02-23T15:18:53.329Z,10.38
2023-02-23T15:21:23.695Z,9.65
2023-02-23T15:24:10.812Z,9.75
2023-02-23T15:26:41.452Z,9.60
2023-02-23T15:29:17.200Z,9.90
2023-02-23T15:34:28.352Z,8.95
2023-02-23T15:37:07.619Z,9.20
2023-02-23T15:39:48.192Z,8.77
2023-02-23T15:42:21.454Z,11.00
2023-02-23T15:45:02.813Z,8.90
2023-02-23T15:47:36.768Z,9.73
2023-02-23T15:50:34.926Z,11.02
2023-02-23T15:53:13.439Z,11.25
2023-02-23T15:55:43.817Z,11.60
2023-02-23T15:58:44.572Z,10.48
2023-02-23T16:01:25.344Z,10.75
2023-02-23T16:04:04.862Z,11.32
2023-02-23T16:06:52.281Z,11.23
2023-02-23T16:09:21.310Z,12.13
2023-02-23T16:12:00.344Z,11.00
2023-02-23T16:14:44.057Z,10.63
2023-02-23T16:17:34.079Z,10.73
2023-02-23T16:20:48.213Z,9.80
2023-02-23T16:23:34.359Z,9.85
2023-02-23T16:26:10.823Z,9.85
2023-02-23T16:28:46.021Z,10.13
2023-02-23T16:31:23.099Z,8.85
2023-02-23T16:33:57.206Z,8.32
2023-02-23T16:36:41.071Z,6.93
2023-02-23T16:39:12.934Z,6.78
2023-02-23T16:41:40.611Z,5.90
2023-02-23T16:44:18.378Z,6.90
2023-02-23T16:47:05.277Z,5.63
2023-02-23T16:49:33.106Z,5.75
2023-02-23T16:52:01.787Z,4.50
2023-02-23T16:54:29.436Z,4.75
2023-02-23T16:56:57.263Z,4.57
2023-02-23T16:59:24.919Z,4.53
2023-02-23T17:01:52.715Z,4.60
2023-02-23T17:04:22.297Z,4.93
2023-02-23T17:06:55.717Z,4.22
2023-02-23T17:09:24.340Z,4.38
2023-02-23T17:11:52.426Z,4.55
2023-02-23T17:14:27.428Z,5.28
2023-02-23T17:16:55.301Z,4.30
2023-02-23T17:19:25.700Z,3.92
2023-02-23T17:21:53.741Z,4.32
2023-02-23T17:24:25.999Z,3.72
2023-02-23T17:26:55.452Z,5.38
2023-02-23T17:29:24.182Z,4.45
2023-02-23T17:31:52.071Z,4.03
2023-02-23T17:34:19.929Z,4.20
2023-02-23T17:36:47.600Z,3.67
2023-02-23T17:39:16.781Z,4.22
2023-02-23T17:41:44.875Z,3.55
2023-02-23T17:44:12.778Z,4.22
2023-02-23T17:46:41.324Z,3.80
2023-02-23T17:49:09.074Z,4.03
2023-02-23T17:51:37.495Z,4.32
2023-02-23T17:54:05.566Z,4.97
2023-02-23T17:56:33.411Z,4.63
2023-02-23T17:59:01.015Z,5.05
2023-02-23T18:01:28.625Z,4.07
2023-02-23T18:03:58.595Z,3.22
2023-02-23T18:06:26.449Z,2.90
2023-02-23T18:08:54.083Z,2.20
2023-02-23T18:11:22.429Z,3.45
2023-02-23T18:13:52.809Z,2.80
2023-02-23T18:16:21.717Z,2.95
2023-02-23T18:18:49.644Z,2.92
2023-02-23T18:21:22.452Z,2.65
2023-02-23T18:23:52.092Z,3.22
2023-02-23T18:26:24.145Z,3.20
2023-02-23T18:28:52.847Z,4.20
2023-02-23T18:31:25.001Z,5.53
2023-02-23T18:33:53.544Z,5.25
2023-02-23T18:36:27.882Z,5.15
2023-02-23T18:38:57.833Z,5.63
2023-02-23T18:41:30.813Z,5.80
2023-02-23T18:44:04.920Z,6.05
2023-02-23T18:46:33.172Z,5.38
2023-02-23T18:49:01.964Z,5.38
2023-02-23T18:51:30.191Z,5.70
2023-02-23T18:53:57.881Z,7.13
2023-02-23T18:56:28.291Z,6.85
2023-02-23T18:58:59.741Z,6.38
2023-02-23T19:01:30.836Z,5.45
2023-02-23T19:04:01.582Z,5.95
2023-02-23T19:06:30.181Z,4.93
2023-02-23T19:09:03.129Z,4.50
2023-02-23T19:11:34.110Z,4.50
2023-02-23T19:14:08.815Z,5.35
2023-02-23T19:16:37.641Z,4.03
2023-02-23T19:19:07.343Z,3.80
2023-02-23T19:21:36.259Z,3.90
2023-02-23T19:24:06.322Z,3.75
2023-02-23T19:26:35.246Z,4.25
2023-02-23T19:29:03.870Z,4.40
2023-02-23T19:31:31.849Z,3.72
2023-02-23T19:34:03.330Z,3.47
2023-02-23T19:36:31.809Z,4.47
2023-02-23T19:39:10.452Z,3.83
2023-02-23T19:41:40.169Z,3.15
2023-02-23T19:44:09.166Z,4.38
2023-02-23T19:46:37.708Z,3.35
2023-02-23T19:49:06.133Z,5.60
2023-02-23T19:51:34.201Z,3.90
2023-02-23T19:54:02.534Z,3.65
2023-02-23T19:56:30.482Z,3.22
2023-02-23T19:59:01.135Z,3.80
2023-02-23T20:01:29.952Z,2.78
2023-02-23T20:04:04.706Z,3.05
2023-02-23T20:06:38.785Z,7.00
2023-02-23T20:09:07.443Z,3.80
2023-02-23T20:11:35.102Z,3.38
2023-02-23T20:14:05.160Z,3.00
2023-02-23T20:16:34.182Z,3.58
2023-02-23T20:19:01.997Z,3.70
2023-02-23T20:21:31.458Z,2.85
2023-02-23T20:24:05.536Z,3.17
2023-02-23T20:26:37.458Z,3.15
2023-02-23T20:29:11.024Z,3.63
2023-02-23T20:31:42.258Z,3.50
2023-02-23T20:34:12.227Z,3.38
2023-02-23T20:36:40.232Z,3.70
2023-02-23T20:39:10.388Z,3.10
2023-02-23T20:41:43.998Z,3.40
2023-02-23T20:44:16.239Z,2.90
2023-02-23T20:46:44.767Z,3.25
2023-02-23T20:49:12.973Z,2.92
2023-02-23T20:51:46.739Z,3.10
2023-02-23T20:54:15.848Z,3.78
2023-02-23T20:56:44.028Z,3.38
2023-02-23T20:59:13.308Z,2.30
2023-02-23T21:01:43.699Z,2.97
2023-02-23T21:04:13.176Z,2.60
2023-02-23T21:06:41.557Z,3.33
2023-02-23T21:09:17.910Z,2.08
2023-02-23T21:11:47.907Z,2.85
2023-02-23T21:14:16.235Z,2.67
2023-02-23T21:16:45.463Z,3.25
2023-02-23T21:19:15.346Z,3.20
2023-02-23T21:21:57.873Z,2.45
2023-02-23T21:24:26.659Z,2.53
2023-02-23T21:26:54.312Z,2.42
2023-02-23T21:29:23.930Z,2.67
2023-02-23T21:31:51.849Z,2.25
2023-02-23T21:34:19.838Z,2.75
2023-02-23T21:36:48.232Z,2.47
2023-02-23T21:39:15.888Z,3.33
2023-02-23T21:41:43.563Z,3.15
2023-02-23T21:44:12.032Z,2.83
2023-02-23T21:46:40.492Z,2.20
2023-02-23T21:49:09.867Z,2.33
2023-02-23T21:51:37.830Z,2.42
2023-02-23T21:54:06.094Z,2.83
2023-02-23T21:56:34.885Z,2.83
2023-02-23T21:59:05.728Z,2.97
2023-02-23T22:01:36.602Z,2.67
2023-02-23T22:04:07.352Z,2.10
2023-02-23T22:06:40.813Z,2.75
2023-02-23T22:09:15.585Z,2.25
2023-02-23T22:11:47.480Z,2.63
2023-02-23T22:14:18.591Z,2.25
2023-02-23T22:16:47.716Z,2.15
2023-02-23T22:19:19.038Z,2.78
2023-02-23T22:21:49.535Z,2.08
2023-02-23T22:24:18.049Z,2.75
2023-02-23T22:26:53.778Z,2.50
2023-02-23T22:29:24.865Z,2.33
2023-02-23T22:31:52.613Z,2.53
2023-02-23T22:34:20.474Z,2.58
2023-02-23T22:36:48.569Z,1.92
2023-02-23T22:39:18.663Z,1.80
2023-02-23T22:41:48.296Z,2.00
2023-02-23T22:44:21.231Z,2.47
2023-02-23T22:46:49.697Z,2.53
2023-02-23T22:49:19.933Z,2.35
2023-02-23T22:51:48.222Z,1.98
2023-02-23T22:54:17.456Z,2.17
2023-02-23T22:56:46.820Z,2.33
2023-02-23T22:59:17.495Z,1.88
2023-02-23T23:01:47.415Z,2.03
2023-02-23T23:04:15.272Z,2.05
2023-02-23T23:06:43.826Z,1.73
2023-02-23T23:09:13.031Z,2.13
2023-02-23T23:11:41.831Z,1.20
2023-02-23T23:14:11.747Z,1.85
2023-02-23T23:16:48.156Z,2.38
2023-02-23T23:19:24.200Z,1.70
2023-02-23T23:21:55.267Z,1.40
2023-02-23T23:24:24.997Z,3.30
2023-02-23T23:27:00.313Z,1.60
2023-02-23T23:29:32.441Z,2.00
2023-02-23T23:32:02.498Z,1.45
2023-02-23T23:34:33.581Z,1.85
2023-02-23T23:37:02.749Z,1.65
2023-02-23T23:39:30.513Z,2.58
2023-02-23T23:41:58.109Z,3.00
2023-02-23T23:44:29.581Z,1.33
2023-02-23T23:46:58.186Z,1.50
2023-02-23T23:49:26.110Z,1.80
2023-02-23T23:51:58.660Z,1.60
2023-02-23T23:54:30.729Z,1.65
2023-02-23T23:57:03.243Z,1.83
2023-02-23T23:59:32.489Z,1.95
